sensor_id;sensor_type;location;lat;lon;timestamp;temperature;humidity
81337;DHT22;70799;48.000;10.584;2023-06-22T00:01:13;21.60;75.00
81337;DHT22;70799;48.000;10.584;2023-06-22T00:03:45;21.60;75.10
81337;DHT22;70799;48.000;10.584;2023-06-22T00:06:17;21.60;75.50
81337;DHT22;70799;48.000;10.584;2023-06-22T00:08:49;21.50;75.20
81337;DHT22;70799;48.000;10.584;2023-06-22T00:11:21;21.50;75.30
81337;DHT22;70799;48.000;10.584;2023-06-22T00:13:55;21.50;75.50
81337;DHT22;70799;48.000;10.584;2023-06-22T00:16:27;21.40;75.40
81337;DHT22;70799;48.000;10.584;2023-06-22T00:18:59;21.40;75.90
81337;DHT22;70799;48.000;10.584;2023-06-22T00:21:34;21.40;75.70
81337;DHT22;70799;48.000;10.584;2023-06-22T00:24:06;21.30;75.90
81337;DHT22;70799;48.000;10.584;2023-06-22T00:26:38;21.30;76.00
81337;DHT22;70799;48.000;10.584;2023-06-22T00:29:14;21.20;75.90
81337;DHT22;70799;48.000;10.584;2023-06-22T00:31:46;21.20;75.90
81337;DHT22;70799;48.000;10.584;2023-06-22T00:34:19;21.10;76.10
81337;DHT22;70799;48.000;10.584;2023-06-22T00:36:51;21.10;76.20
81337;DHT22;70799;48.000;10.584;2023-06-22T00:39:23;21.00;76.20
81337;DHT22;70799;48.000;10.584;2023-06-22T00:41:55;20.90;76.30
81337;DHT22;70799;48.000;10.584;2023-06-22T00:44:27;20.80;77.90
81337;DHT22;70799;48.000;10.584;2023-06-22T00:46:59;20.80;77.70
81337;DHT22;70799;48.000;10.584;2023-06-22T00:49:33;20.80;77.90
81337;DHT22;70799;48.000;10.584;2023-06-22T00:52:06;20.70;77.80
81337;DHT22;70799;48.000;10.584;2023-06-22T00:54:41;20.70;78.00
81337;DHT22;70799;48.000;10.584;2023-06-22T00:57:17;20.70;78.20
81337;DHT22;70799;48.000;10.584;2023-06-22T00:59:51;20.60;78.00
81337;DHT22;70799;48.000;10.584;2023-06-22T01:02:22;20.60;78.50
81337;DHT22;70799;48.000;10.584;2023-06-22T01:04:56;20.60;78.50
81337;DHT22;70799;48.000;10.584;2023-06-22T01:07:35;20.50;78.60
81337;DHT22;70799;48.000;10.584;2023-06-22T01:12:47;20.40;78.90
81337;DHT22;70799;48.000;10.584;2023-06-22T01:15:29;20.40;79.00
81337;DHT22;70799;48.000;10.584;2023-06-22T01:18:04;20.40;79.10
81337;DHT22;70799;48.000;10.584;2023-06-22T01:20:38;20.40;78.90
81337;DHT22;70799;48.000;10.584;2023-06-22T01:23:27;20.40;79.20
81337;DHT22;70799;48.000;10.584;2023-06-22T01:26:17;20.40;79.10
81337;DHT22;70799;48.000;10.584;2023-06-22T01:28:54;20.40;79.00
81337;DHT22;70799;48.000;10.584;2023-06-22T01:31:28;20.30;79.10
81337;DHT22;70799;48.000;10.584;2023-06-22T01:34:03;20.30;79.20
81337;DHT22;70799;48.000;10.584;2023-06-22T01:36:37;20.30;79.30
81337;DHT22;70799;48.000;10.584;2023-06-22T01:39:09;20.40;79.20
81337;DHT22;70799;48.000;10.584;2023-06-22T01:41:43;20.40;79.10
81337;DHT22;70799;48.000;10.584;2023-06-22T01:44:16;20.30;79.00
81337;DHT22;70799;48.000;10.584;2023-06-22T01:46:49;20.30;79.00
81337;DHT22;70799;48.000;10.584;2023-06-22T01:49:24;20.20;78.90
81337;DHT22;70799;48.000;10.584;2023-06-22T01:51:57;20.20;78.90
81337;DHT22;70799;48.000;10.584;2023-06-22T01:54:29;20.20;79.20
81337;DHT22;70799;48.000;10.584;2023-06-22T01:57:01;20.10;79.30
81337;DHT22;70799;48.000;10.584;2023-06-22T01:59:42;20.20;79.30
81337;DHT22;70799;48.000;10.584;2023-06-22T02:02:19;20.10;79.70
81337;DHT22;70799;48.000;10.584;2023-06-22T02:04:57;20.10;79.60
81337;DHT22;70799;48.000;10.584;2023-06-22T02:07:34;20.10;79.60
81337;DHT22;70799;48.000;10.584;2023-06-22T02:10:10;20.10;79.50
81337;DHT22;70799;48.000;10.584;2023-06-22T02:12:44;20.10;79.60
81337;DHT22;70799;48.000;10.584;2023-06-22T02:15:18;20.10;79.40
81337;DHT22;70799;48.000;10.584;2023-06-22T02:17:51;20.00;79.70
81337;DHT22;70799;48.000;10.584;2023-06-22T02:20:24;19.90;80.00
81337;DHT22;70799;48.000;10.584;2023-06-22T02:22:56;19.90;80.00
81337;DHT22;70799;48.000;10.584;2023-06-22T02:25:28;19.70;80.00
81337;DHT22;70799;48.000;10.584;2023-06-22T02:28:01;19.90;80.10
81337;DHT22;70799;48.000;10.584;2023-06-22T02:30:33;19.90;80.50
81337;DHT22;70799;48.000;10.584;2023-06-22T02:33:05;19.80;80.50
81337;DHT22;70799;48.000;10.584;2023-06-22T02:35:37;19.80;80.50
81337;DHT22;70799;48.000;10.584;2023-06-22T02:38:09;19.80;80.40
81337;DHT22;70799;48.000;10.584;2023-06-22T02:40:41;19.80;80.40
81337;DHT22;70799;48.000;10.584;2023-06-22T02:43:13;19.80;80.20
81337;DHT22;70799;48.000;10.584;2023-06-22T02:45:47;19.80;80.60
81337;DHT22;70799;48.000;10.584;2023-06-22T02:48:20;19.70;80.40
81337;DHT22;70799;48.000;10.584;2023-06-22T02:50:52;19.80;80.40
81337;DHT22;70799;48.000;10.584;2023-06-22T02:53:24;19.70;80.40
81337;DHT22;70799;48.000;10.584;2023-06-22T02:55:57;19.70;80.60
81337;DHT22;70799;48.000;10.584;2023-06-22T02:58:29;19.70;80.50
81337;DHT22;70799;48.000;10.584;2023-06-22T03:01:01;19.70;80.50
81337;DHT22;70799;48.000;10.584;2023-06-22T03:03:37;19.70;80.50
81337;DHT22;70799;48.000;10.584;2023-06-22T03:06:09;19.70;80.50
81337;DHT22;70799;48.000;10.584;2023-06-22T03:08:46;19.70;80.30
81337;DHT22;70799;48.000;10.584;2023-06-22T03:11:18;19.60;80.50
81337;DHT22;70799;48.000;10.584;2023-06-22T03:13:50;19.50;80.60
81337;DHT22;70799;48.000;10.584;2023-06-22T03:16:24;19.50;80.80
81337;DHT22;70799;48.000;10.584;2023-06-22T03:18:57;19.50;80.90
81337;DHT22;70799;48.000;10.584;2023-06-22T03:21:29;19.50;80.90
81337;DHT22;70799;48.000;10.584;2023-06-22T03:24:05;19.50;80.80
81337;DHT22;70799;48.000;10.584;2023-06-22T03:26:37;19.50;80.70
81337;DHT22;70799;48.000;10.584;2023-06-22T03:29:09;19.50;81.00
81337;DHT22;70799;48.000;10.584;2023-06-22T03:31:41;19.50;80.50
81337;DHT22;70799;48.000;10.584;2023-06-22T03:34:14;19.50;80.50
81337;DHT22;70799;48.000;10.584;2023-06-22T03:36:46;19.40;80.70
81337;DHT22;70799;48.000;10.584;2023-06-22T03:39:18;19.50;80.80
81337;DHT22;70799;48.000;10.584;2023-06-22T03:41:50;19.50;80.90
81337;DHT22;70799;48.000;10.584;2023-06-22T03:44:22;19.60;80.80
81337;DHT22;70799;48.000;10.584;2023-06-22T03:46:54;19.60;80.50
81337;DHT22;70799;48.000;10.584;2023-06-22T03:49:26;19.60;80.60
81337;DHT22;70799;48.000;10.584;2023-06-22T03:51:58;19.70;80.60
81337;DHT22;70799;48.000;10.584;2023-06-22T03:54:30;19.70;80.50
81337;DHT22;70799;48.000;10.584;2023-06-22T03:57:02;19.80;80.30
81337;DHT22;70799;48.000;10.584;2023-06-22T03:59:34;19.90;80.30
81337;DHT22;70799;48.000;10.584;2023-06-22T04:02:06;19.90;80.10
81337;DHT22;70799;48.000;10.584;2023-06-22T04:04:38;20.00;79.90
81337;DHT22;70799;48.000;10.584;2023-06-22T04:07:11;20.20;79.50
81337;DHT22;70799;48.000;10.584;2023-06-22T04:09:43;20.40;79.20
81337;DHT22;70799;48.000;10.584;2023-06-22T04:12:15;20.50;79.00
81337;DHT22;70799;48.000;10.584;2023-06-22T04:14:46;20.60;78.70
81337;DHT22;70799;48.000;10.584;2023-06-22T04:17:18;20.70;78.30
81337;DHT22;70799;48.000;10.584;2023-06-22T04:19:51;21.00;76.70
81337;DHT22;70799;48.000;10.584;2023-06-22T04:22:23;21.20;76.30
81337;DHT22;70799;48.000;10.584;2023-06-22T04:24:55;21.40;76.10
81337;DHT22;70799;48.000;10.584;2023-06-22T04:27:28;21.60;75.90
81337;DHT22;70799;48.000;10.584;2023-06-22T04:30:02;21.80;75.20
81337;DHT22;70799;48.000;10.584;2023-06-22T04:32:34;21.90;75.00
81337;DHT22;70799;48.000;10.584;2023-06-22T04:35:10;21.90;74.70
81337;DHT22;70799;48.000;10.584;2023-06-22T04:37:43;21.90;74.70
81337;DHT22;70799;48.000;10.584;2023-06-22T04:40:15;22.00;74.90
81337;DHT22;70799;48.000;10.584;2023-06-22T04:42:48;21.90;74.70
81337;DHT22;70799;48.000;10.584;2023-06-22T04:45:23;21.80;74.90
81337;DHT22;70799;48.000;10.584;2023-06-22T04:47:55;21.80;75.00
81337;DHT22;70799;48.000;10.584;2023-06-22T04:50:27;21.80;75.40
81337;DHT22;70799;48.000;10.584;2023-06-22T04:52:59;21.90;74.80
81337;DHT22;70799;48.000;10.584;2023-06-22T04:55:32;21.80;75.10
81337;DHT22;70799;48.000;10.584;2023-06-22T04:58:04;21.90;75.10
81337;DHT22;70799;48.000;10.584;2023-06-22T05:00:36;22.00;74.90
81337;DHT22;70799;48.000;10.584;2023-06-22T05:03:08;22.00;74.80
81337;DHT22;70799;48.000;10.584;2023-06-22T05:05:49;22.00;74.70
81337;DHT22;70799;48.000;10.584;2023-06-22T05:08:21;22.00;74.80
81337;DHT22;70799;48.000;10.584;2023-06-22T05:10:53;22.00;74.80
81337;DHT22;70799;48.000;10.584;2023-06-22T05:13:36;22.00;74.70
81337;DHT22;70799;48.000;10.584;2023-06-22T05:16:08;22.10;74.70
81337;DHT22;70799;48.000;10.584;2023-06-22T05:18:41;22.10;75.00
81337;DHT22;70799;48.000;10.584;2023-06-22T05:21:13;22.10;74.60
81337;DHT22;70799;48.000;10.584;2023-06-22T05:23:45;22.10;74.60
81337;DHT22;70799;48.000;10.584;2023-06-22T05:26:18;22.20;74.50
81337;DHT22;70799;48.000;10.584;2023-06-22T05:28:50;22.20;74.60
81337;DHT22;70799;48.000;10.584;2023-06-22T05:31:22;22.40;74.60
81337;DHT22;70799;48.000;10.584;2023-06-22T05:33:55;22.90;73.80
81337;DHT22;70799;48.000;10.584;2023-06-22T05:36:27;23.50;72.60
81337;DHT22;70799;48.000;10.584;2023-06-22T05:38:59;24.20;70.50
81337;DHT22;70799;48.000;10.584;2023-06-22T05:41:31;24.90;68.80
81337;DHT22;70799;48.000;10.584;2023-06-22T05:44:03;25.60;67.20
81337;DHT22;70799;48.000;10.584;2023-06-22T05:46:35;26.10;65.60
81337;DHT22;70799;48.000;10.584;2023-06-22T05:49:07;26.60;63.40
81337;DHT22;70799;48.000;10.584;2023-06-22T05:51:40;27.10;62.60
81337;DHT22;70799;48.000;10.584;2023-06-22T05:54:12;27.70;61.40
81337;DHT22;70799;48.000;10.584;2023-06-22T05:56:45;28.20;60.00
81337;DHT22;70799;48.000;10.584;2023-06-22T05:59:19;28.60;59.40
81337;DHT22;70799;48.000;10.584;2023-06-22T06:01:51;28.80;58.40
81337;DHT22;70799;48.000;10.584;2023-06-22T06:04:24;29.10;58.00
81337;DHT22;70799;48.000;10.584;2023-06-22T06:07:00;29.40;56.40
81337;DHT22;70799;48.000;10.584;2023-06-22T06:09:34;29.60;55.00
81337;DHT22;70799;48.000;10.584;2023-06-22T06:12:06;29.80;55.10
81337;DHT22;70799;48.000;10.584;2023-06-22T06:14:39;29.90;55.00
81337;DHT22;70799;48.000;10.584;2023-06-22T06:17:11;30.00;54.70
81337;DHT22;70799;48.000;10.584;2023-06-22T06:19:43;30.30;53.90
81337;DHT22;70799;48.000;10.584;2023-06-22T06:22:15;30.60;53.00
81337;DHT22;70799;48.000;10.584;2023-06-22T06:24:48;30.40;53.50
81337;DHT22;70799;48.000;10.584;2023-06-22T06:27:20;30.60;53.20
81337;DHT22;70799;48.000;10.584;2023-06-22T06:29:52;30.90;52.80
81337;DHT22;70799;48.000;10.584;2023-06-22T06:32:24;31.00;52.10
81337;DHT22;70799;48.000;10.584;2023-06-22T06:34:56;31.20;51.60
81337;DHT22;70799;48.000;10.584;2023-06-22T06:37:28;31.50;52.10
81337;DHT22;70799;48.000;10.584;2023-06-22T06:40:01;31.60;50.40
81337;DHT22;70799;48.000;10.584;2023-06-22T06:42:33;31.80;49.50
81337;DHT22;70799;48.000;10.584;2023-06-22T06:45:05;31.90;49.20
81337;DHT22;70799;48.000;10.584;2023-06-22T06:47:37;32.10;48.70
81337;DHT22;70799;48.000;10.584;2023-06-22T06:50:10;32.30;48.30
81337;DHT22;70799;48.000;10.584;2023-06-22T06:52:43;32.50;48.10
81337;DHT22;70799;48.000;10.584;2023-06-22T06:55:16;32.40;48.10
81337;DHT22;70799;48.000;10.584;2023-06-22T06:57:48;32.50;48.40
81337;DHT22;70799;48.000;10.584;2023-06-22T07:00:21;32.60;47.60
81337;DHT22;70799;48.000;10.584;2023-06-22T07:02:53;32.40;48.40
81337;DHT22;70799;48.000;10.584;2023-06-22T07:05:25;32.70;47.70
81337;DHT22;70799;48.000;10.584;2023-06-22T07:07:57;32.70;47.20
81337;DHT22;70799;48.000;10.584;2023-06-22T07:10:29;32.70;47.80
81337;DHT22;70799;48.000;10.584;2023-06-22T07:13:03;32.60;47.70
81337;DHT22;70799;48.000;10.584;2023-06-22T07:15:35;32.60;47.70
81337;DHT22;70799;48.000;10.584;2023-06-22T07:18:07;32.40;47.80
81337;DHT22;70799;48.000;10.584;2023-06-22T07:20:39;32.40;47.80
81337;DHT22;70799;48.000;10.584;2023-06-22T07:23:12;32.30;48.00
81337;DHT22;70799;48.000;10.584;2023-06-22T07:25:44;32.30;48.00
81337;DHT22;70799;48.000;10.584;2023-06-22T07:28:17;32.00;48.60
81337;DHT22;70799;48.000;10.584;2023-06-22T07:30:49;31.70;49.10
81337;DHT22;70799;48.000;10.584;2023-06-22T07:33:23;31.30;50.40
81337;DHT22;70799;48.000;10.584;2023-06-22T07:35:55;31.10;50.90
81337;DHT22;70799;48.000;10.584;2023-06-22T07:38:27;31.10;51.20
81337;DHT22;70799;48.000;10.584;2023-06-22T07:41:02;31.00;50.70
81337;DHT22;70799;48.000;10.584;2023-06-22T07:43:36;31.00;51.90
81337;DHT22;70799;48.000;10.584;2023-06-22T07:46:08;31.10;51.50
81337;DHT22;70799;48.000;10.584;2023-06-22T07:48:42;31.20;51.40
81337;DHT22;70799;48.000;10.584;2023-06-22T07:51:15;31.20;50.60
81337;DHT22;70799;48.000;10.584;2023-06-22T07:53:48;31.10;51.60
81337;DHT22;70799;48.000;10.584;2023-06-22T07:56:21;31.00;51.40
81337;DHT22;70799;48.000;10.584;2023-06-22T07:58:54;31.10;52.20
81337;DHT22;70799;48.000;10.584;2023-06-22T08:01:26;31.30;51.60
81337;DHT22;70799;48.000;10.584;2023-06-22T08:03:58;31.50;50.80
81337;DHT22;70799;48.000;10.584;2023-06-22T08:06:30;31.70;50.20
81337;DHT22;70799;48.000;10.584;2023-06-22T08:09:03;31.80;50.00
81337;DHT22;70799;48.000;10.584;2023-06-22T08:11:35;32.00;49.00
81337;DHT22;70799;48.000;10.584;2023-06-22T08:14:07;32.10;48.80
81337;DHT22;70799;48.000;10.584;2023-06-22T08:16:39;32.30;49.00
81337;DHT22;70799;48.000;10.584;2023-06-22T08:19:11;32.30;48.50
81337;DHT22;70799;48.000;10.584;2023-06-22T08:21:43;32.60;48.00
81337;DHT22;70799;48.000;10.584;2023-06-22T08:24:16;32.70;47.30
81337;DHT22;70799;48.000;10.584;2023-06-22T08:26:49;32.70;47.70
81337;DHT22;70799;48.000;10.584;2023-06-22T08:29:21;32.80;46.80
81337;DHT22;70799;48.000;10.584;2023-06-22T08:31:53;33.00;47.00
81337;DHT22;70799;48.000;10.584;2023-06-22T08:34:27;33.20;46.50
81337;DHT22;70799;48.000;10.584;2023-06-22T08:37:01;33.40;45.70
81337;DHT22;70799;48.000;10.584;2023-06-22T08:39:37;33.40;45.50
81337;DHT22;70799;48.000;10.584;2023-06-22T08:42:10;33.50;46.30
81337;DHT22;70799;48.000;10.584;2023-06-22T08:44:43;33.70;45.70
81337;DHT22;70799;48.000;10.584;2023-06-22T08:47:15;33.70;45.40
81337;DHT22;70799;48.000;10.584;2023-06-22T08:49:48;33.70;45.30
81337;DHT22;70799;48.000;10.584;2023-06-22T08:52:20;33.60;45.30
81337;DHT22;70799;48.000;10.584;2023-06-22T08:54:52;33.60;44.70
81337;DHT22;70799;48.000;10.584;2023-06-22T08:57:25;33.60;44.30
81337;DHT22;70799;48.000;10.584;2023-06-22T08:59:57;33.40;45.20
81337;DHT22;70799;48.000;10.584;2023-06-22T09:02:32;33.50;44.90
81337;DHT22;70799;48.000;10.584;2023-06-22T09:05:04;34.00;46.30
81337;DHT22;70799;48.000;10.584;2023-06-22T09:07:37;34.40;44.80
81337;DHT22;70799;48.000;10.584;2023-06-22T09:10:09;34.50;44.00
81337;DHT22;70799;48.000;10.584;2023-06-22T09:12:41;34.50;44.50
81337;DHT22;70799;48.000;10.584;2023-06-22T09:15:14;34.70;43.80
81337;DHT22;70799;48.000;10.584;2023-06-22T09:17:59;34.80;43.20
81337;DHT22;70799;48.000;10.584;2023-06-22T09:20:31;35.00;43.00
81337;DHT22;70799;48.000;10.584;2023-06-22T09:23:03;35.10;43.60
81337;DHT22;70799;48.000;10.584;2023-06-22T09:25:35;35.40;42.40
81337;DHT22;70799;48.000;10.584;2023-06-22T09:28:07;35.30;41.00
81337;DHT22;70799;48.000;10.584;2023-06-22T09:30:39;35.30;42.00
81337;DHT22;70799;48.000;10.584;2023-06-22T09:33:11;35.40;41.80
81337;DHT22;70799;48.000;10.584;2023-06-22T09:35:43;35.40;42.10
81337;DHT22;70799;48.000;10.584;2023-06-22T09:38:15;35.40;42.10
81337;DHT22;70799;48.000;10.584;2023-06-22T09:40:47;35.60;42.60
81337;DHT22;70799;48.000;10.584;2023-06-22T09:43:19;35.60;41.60
81337;DHT22;70799;48.000;10.584;2023-06-22T09:45:51;35.80;41.70
81337;DHT22;70799;48.000;10.584;2023-06-22T09:48:23;36.30;41.20
81337;DHT22;70799;48.000;10.584;2023-06-22T09:50:55;36.70;40.40
81337;DHT22;70799;48.000;10.584;2023-06-22T09:53:27;36.80;39.60
81337;DHT22;70799;48.000;10.584;2023-06-22T09:56:01;36.80;40.50
81337;DHT22;70799;48.000;10.584;2023-06-22T09:58:34;36.60;39.60
81337;DHT22;70799;48.000;10.584;2023-06-22T10:01:06;36.30;40.00
81337;DHT22;70799;48.000;10.584;2023-06-22T10:03:38;36.40;39.90
81337;DHT22;70799;48.000;10.584;2023-06-22T10:06:10;36.40;39.60
81337;DHT22;70799;48.000;10.584;2023-06-22T10:08:43;36.30;40.70
81337;DHT22;70799;48.000;10.584;2023-06-22T10:11:15;36.40;40.70
81337;DHT22;70799;48.000;10.584;2023-06-22T10:13:47;36.60;40.40
81337;DHT22;70799;48.000;10.584;2023-06-22T10:16:18;37.10;39.90
81337;DHT22;70799;48.000;10.584;2023-06-22T10:18:50;37.30;39.70
81337;DHT22;70799;48.000;10.584;2023-06-22T10:21:22;37.50;38.90
81337;DHT22;70799;48.000;10.584;2023-06-22T10:23:54;37.60;39.00
81337;DHT22;70799;48.000;10.584;2023-06-22T10:26:27;37.70;38.50
81337;DHT22;70799;48.000;10.584;2023-06-22T10:29:01;37.60;39.30
81337;DHT22;70799;48.000;10.584;2023-06-22T10:31:48;37.60;40.10
81337;DHT22;70799;48.000;10.584;2023-06-22T10:34:22;37.80;39.50
81337;DHT22;70799;48.000;10.584;2023-06-22T10:36:54;38.00;39.00
81337;DHT22;70799;48.000;10.584;2023-06-22T10:39:26;38.10;37.40
81337;DHT22;70799;48.000;10.584;2023-06-22T10:41:58;38.00;36.70
81337;DHT22;70799;48.000;10.584;2023-06-22T10:44:30;37.90;37.00
81337;DHT22;70799;48.000;10.584;2023-06-22T10:47:01;38.00;37.00
81337;DHT22;70799;48.000;10.584;2023-06-22T10:49:33;38.00;37.20
81337;DHT22;70799;48.000;10.584;2023-06-22T10:52:08;38.20;36.80
81337;DHT22;70799;48.000;10.584;2023-06-22T10:54:41;38.30;37.30
81337;DHT22;70799;48.000;10.584;2023-06-22T10:57:13;38.30;37.00
81337;DHT22;70799;48.000;10.584;2023-06-22T10:59:45;38.30;38.20
81337;DHT22;70799;48.000;10.584;2023-06-22T11:02:17;38.70;38.10
81337;DHT22;70799;48.000;10.584;2023-06-22T11:04:49;38.70;37.00
81337;DHT22;70799;48.000;10.584;2023-06-22T11:07:21;38.70;36.90
81337;DHT22;70799;48.000;10.584;2023-06-22T11:09:53;38.50;38.00
81337;DHT22;70799;48.000;10.584;2023-06-22T11:12:25;38.40;37.50
81337;DHT22;70799;48.000;10.584;2023-06-22T11:14:57;38.30;38.00
81337;DHT22;70799;48.000;10.584;2023-06-22T11:17:31;38.20;38.00
81337;DHT22;70799;48.000;10.584;2023-06-22T11:20:05;38.20;38.80
81337;DHT22;70799;48.000;10.584;2023-06-22T11:22:43;38.20;37.80
81337;DHT22;70799;48.000;10.584;2023-06-22T11:25:15;38.30;37.40
81337;DHT22;70799;48.000;10.584;2023-06-22T11:27:47;38.10;36.80
81337;DHT22;70799;48.000;10.584;2023-06-22T11:30:19;37.90;36.60
81337;DHT22;70799;48.000;10.584;2023-06-22T11:32:51;37.60;37.20
81337;DHT22;70799;48.000;10.584;2023-06-22T11:35:23;37.30;37.30
81337;DHT22;70799;48.000;10.584;2023-06-22T11:37:55;37.30;36.80
81337;DHT22;70799;48.000;10.584;2023-06-22T11:40:27;37.40;34.90
81337;DHT22;70799;48.000;10.584;2023-06-22T11:43:02;37.50;35.20
81337;DHT22;70799;48.000;10.584;2023-06-22T11:45:34;37.60;34.70
81337;DHT22;70799;48.000;10.584;2023-06-22T11:48:06;37.40;36.20
81337;DHT22;70799;48.000;10.584;2023-06-22T11:50:38;37.30;35.90
81337;DHT22;70799;48.000;10.584;2023-06-22T11:53:10;37.50;34.90
81337;DHT22;70799;48.000;10.584;2023-06-22T11:55:42;37.40;34.30
81337;DHT22;70799;48.000;10.584;2023-06-22T11:58:16;37.50;35.20
81337;DHT22;70799;48.000;10.584;2023-06-22T12:00:49;37.60;34.70
81337;DHT22;70799;48.000;10.584;2023-06-22T12:03:23;37.80;34.50
81337;DHT22;70799;48.000;10.584;2023-06-22T12:05:55;37.80;34.70
81337;DHT22;70799;48.000;10.584;2023-06-22T12:08:27;37.80;34.50
81337;DHT22;70799;48.000;10.584;2023-06-22T12:11:01;37.80;34.50
81337;DHT22;70799;48.000;10.584;2023-06-22T12:13:33;37.80;34.90
81337;DHT22;70799;48.000;10.584;2023-06-22T12:16:05;37.80;34.90
81337;DHT22;70799;48.000;10.584;2023-06-22T12:18:40;37.90;35.10
81337;DHT22;70799;48.000;10.584;2023-06-22T12:21:12;37.90;34.20
81337;DHT22;70799;48.000;10.584;2023-06-22T12:23:44;37.70;34.80
81337;DHT22;70799;48.000;10.584;2023-06-22T12:26:16;37.50;34.90
81337;DHT22;70799;48.000;10.584;2023-06-22T12:28:48;37.10;36.60
81337;DHT22;70799;48.000;10.584;2023-06-22T12:31:20;36.80;36.30
81337;DHT22;70799;48.000;10.584;2023-06-22T12:33:52;36.70;35.70
81337;DHT22;70799;48.000;10.584;2023-06-22T12:36:24;36.60;37.20
81337;DHT22;70799;48.000;10.584;2023-06-22T12:38:56;37.00;37.50
81337;DHT22;70799;48.000;10.584;2023-06-22T12:41:28;37.20;37.10
81337;DHT22;70799;48.000;10.584;2023-06-22T12:44:02;37.30;36.80
81337;DHT22;70799;48.000;10.584;2023-06-22T12:46:34;37.50;36.00
81337;DHT22;70799;48.000;10.584;2023-06-22T12:49:09;37.70;35.90
81337;DHT22;70799;48.000;10.584;2023-06-22T12:51:42;37.80;35.70
81337;DHT22;70799;48.000;10.584;2023-06-22T12:54:14;37.80;35.60
81337;DHT22;70799;48.000;10.584;2023-06-22T12:56:46;37.80;34.90
81337;DHT22;70799;48.000;10.584;2023-06-22T12:59:18;37.80;35.10
81337;DHT22;70799;48.000;10.584;2023-06-22T13:01:50;37.70;35.50
81337;DHT22;70799;48.000;10.584;2023-06-22T13:04:22;37.60;35.60
81337;DHT22;70799;48.000;10.584;2023-06-22T13:06:54;37.60;35.40
81337;DHT22;70799;48.000;10.584;2023-06-22T13:09:28;37.70;36.00
81337;DHT22;70799;48.000;10.584;2023-06-22T13:12:00;37.60;36.60
81337;DHT22;70799;48.000;10.584;2023-06-22T13:14:32;37.50;35.60
81337;DHT22;70799;48.000;10.584;2023-06-22T13:17:04;37.50;35.70
81337;DHT22;70799;48.000;10.584;2023-06-22T13:19:36;37.50;35.80
81337;DHT22;70799;48.000;10.584;2023-06-22T13:25:02;37.80;35.00
81337;DHT22;70799;48.000;10.584;2023-06-22T13:27:34;37.90;34.50
81337;DHT22;70799;48.000;10.584;2023-06-22T13:30:07;37.90;35.10
81337;DHT22;70799;48.000;10.584;2023-06-22T13:32:41;38.20;34.50
81337;DHT22;70799;48.000;10.584;2023-06-22T13:35:14;38.30;34.20
81337;DHT22;70799;48.000;10.584;2023-06-22T13:37:46;38.20;34.00
81337;DHT22;70799;48.000;10.584;2023-06-22T13:40:18;38.10;34.30
81337;DHT22;70799;48.000;10.584;2023-06-22T13:42:50;38.10;33.70
81337;DHT22;70799;48.000;10.584;2023-06-22T13:45:25;38.20;34.00
81337;DHT22;70799;48.000;10.584;2023-06-22T13:47:57;38.30;34.40
81337;DHT22;70799;48.000;10.584;2023-06-22T13:50:29;38.40;34.50
81337;DHT22;70799;48.000;10.584;2023-06-22T13:53:02;38.30;33.70
81337;DHT22;70799;48.000;10.584;2023-06-22T13:55:34;38.30;33.30
81337;DHT22;70799;48.000;10.584;2023-06-22T13:58:06;38.40;33.30
81337;DHT22;70799;48.000;10.584;2023-06-22T14:00:38;38.40;32.90
81337;DHT22;70799;48.000;10.584;2023-06-22T14:03:10;38.40;33.10
81337;DHT22;70799;48.000;10.584;2023-06-22T14:05:43;38.50;33.10
81337;DHT22;70799;48.000;10.584;2023-06-22T14:08:15;38.60;32.90
81337;DHT22;70799;48.000;10.584;2023-06-22T14:11:07;38.60;33.10
81337;DHT22;70799;48.000;10.584;2023-06-22T14:13:39;38.70;33.30
81337;DHT22;70799;48.000;10.584;2023-06-22T14:16:14;38.30;33.20
81337;DHT22;70799;48.000;10.584;2023-06-22T14:18:45;38.10;33.50
81337;DHT22;70799;48.000;10.584;2023-06-22T14:21:18;38.10;33.40
81337;DHT22;70799;48.000;10.584;2023-06-22T14:23:50;38.20;33.20
81337;DHT22;70799;48.000;10.584;2023-06-22T14:26:22;38.30;33.90
81337;DHT22;70799;48.000;10.584;2023-06-22T14:28:54;38.40;33.60
81337;DHT22;70799;48.000;10.584;2023-06-22T14:31:28;38.40;33.50
81337;DHT22;70799;48.000;10.584;2023-06-22T14:34:00;38.30;33.60
81337;DHT22;70799;48.000;10.584;2023-06-22T14:36:34;38.00;33.70
81337;DHT22;70799;48.000;10.584;2023-06-22T14:39:06;37.80;34.70
81337;DHT22;70799;48.000;10.584;2023-06-22T14:41:38;37.60;34.50
81337;DHT22;70799;48.000;10.584;2023-06-22T14:44:10;37.50;34.30
81337;DHT22;70799;48.000;10.584;2023-06-22T14:46:42;37.30;35.20
81337;DHT22;70799;48.000;10.584;2023-06-22T14:49:14;37.20;35.80
81337;DHT22;70799;48.000;10.584;2023-06-22T14:51:46;37.20;35.60
81337;DHT22;70799;48.000;10.584;2023-06-22T14:54:18;37.10;35.90
81337;DHT22;70799;48.000;10.584;2023-06-22T14:56:50;37.10;35.70
81337;DHT22;70799;48.000;10.584;2023-06-22T14:59:22;37.10;35.60
81337;DHT22;70799;48.000;10.584;2023-06-22T15:01:54;37.20;35.90
81337;DHT22;70799;48.000;10.584;2023-06-22T15:04:26;37.10;35.10
81337;DHT22;70799;48.000;10.584;2023-06-22T15:07:03;37.10;35.60
81337;DHT22;70799;48.000;10.584;2023-06-22T15:09:35;36.90;35.50
81337;DHT22;70799;48.000;10.584;2023-06-22T15:12:07;37.10;35.60
81337;DHT22;70799;48.000;10.584;2023-06-22T15:14:43;37.10;35.70
81337;DHT22;70799;48.000;10.584;2023-06-22T15:17:15;37.10;36.10
81337;DHT22;70799;48.000;10.584;2023-06-22T15:19:47;37.10;35.70
81337;DHT22;70799;48.000;10.584;2023-06-22T15:22:19;37.10;35.70
81337;DHT22;70799;48.000;10.584;2023-06-22T15:24:51;36.90;35.40
81337;DHT22;70799;48.000;10.584;2023-06-22T15:27:29;36.80;36.10
81337;DHT22;70799;48.000;10.584;2023-06-22T15:30:02;36.70;36.70
81337;DHT22;70799;48.000;10.584;2023-06-22T15:32:35;36.40;35.90
81337;DHT22;70799;48.000;10.584;2023-06-22T15:35:07;36.10;36.00
81337;DHT22;70799;48.000;10.584;2023-06-22T15:37:39;35.80;36.60
81337;DHT22;70799;48.000;10.584;2023-06-22T15:40:11;35.50;36.70
81337;DHT22;70799;48.000;10.584;2023-06-22T15:42:44;35.40;36.80
81337;DHT22;70799;48.000;10.584;2023-06-22T15:45:17;35.20;37.00
81337;DHT22;70799;48.000;10.584;2023-06-22T15:47:49;35.10;37.20
81337;DHT22;70799;48.000;10.584;2023-06-22T15:50:21;35.10;37.10
81337;DHT22;70799;48.000;10.584;2023-06-22T15:52:53;35.00;37.00
81337;DHT22;70799;48.000;10.584;2023-06-22T15:55:26;34.80;37.20